BTR9372 LIME-LKTB
Flight info
| Callsign | BTR9372 |
|---|---|
| Flight time | 1h 6m |
| Altitude | 34000 |
| Route | OSKOR DCT NESTI DCT TAGIP DCT DIBAX DCT SUMIR DCT ALESE DCT VESAL DCT MALUG DCT LEDVA |
| Aircraft | B738/M-SDE2E3FGHIRWXY/LB1 |
Departure
| Time | 2026-04-22 09:21 |
|---|---|
| Airport | Il Caravaggio International Airport (LIME) |
Arrival
| Time | 2026-04-22 10:28 |
|---|---|
| Airport | Brno-Tuřany Airport (LKTB) |
| Time | Latitude | Longitude | Altitude | Speed | Heading |
|---|---|---|---|---|---|
| 2026-04-22 08:48 | 45.66665 | 9.69858 | 784 ft | 0 kts | 195° |
| 2026-04-22 09:13 | 45.66670 | 9.69860 | 784 ft | 2 kts | 195° |
| 2026-04-22 09:13 | 45.66686 | 9.69866 | 784 ft | 2 kts | 195° |
| 2026-04-22 09:13 | 45.66702 | 9.69873 | 784 ft | 2 kts | 195° |
| 2026-04-22 09:14 | 45.66718 | 9.69878 | 784 ft | 2 kts | 175° |
| 2026-04-22 09:14 | 45.66731 | 9.69871 | 784 ft | 1 kts | 112° |
| 2026-04-22 09:14 | 45.66733 | 9.69862 | 784 ft | 0 kts | 102° |
| 2026-04-22 09:15 | 45.66734 | 9.69864 | 784 ft | 0 kts | 92° |
| 2026-04-22 09:15 | 45.66736 | 9.69869 | 784 ft | 1 kts | 66° |
| 2026-04-22 09:16 | 45.66741 | 9.69884 | 783 ft | 4 kts | 65° |
| 2026-04-22 09:16 | 45.66748 | 9.69949 | 783 ft | 9 kts | 97° |
| 2026-04-22 09:16 | 45.66727 | 9.70062 | 782 ft | 14 kts | 108° |
| 2026-04-22 09:16 | 45.66706 | 9.70210 | 781 ft | 15 kts | 101° |
| 2026-04-22 09:17 | 45.66680 | 9.70354 | 779 ft | 15 kts | 107° |
| 2026-04-22 09:17 | 45.66654 | 9.70491 | 778 ft | 14 kts | 104° |
| 2026-04-22 09:17 | 45.66629 | 9.70623 | 777 ft | 13 kts | 105° |
| 2026-04-22 09:17 | 45.66605 | 9.70748 | 776 ft | 13 kts | 103° |
| 2026-04-22 09:18 | 45.66583 | 9.70871 | 775 ft | 13 kts | 105° |
| 2026-04-22 09:18 | 45.66559 | 9.70995 | 774 ft | 14 kts | 105° |
| 2026-04-22 09:18 | 45.66524 | 9.71151 | 773 ft | 19 kts | 111° |
| 2026-04-22 09:18 | 45.66481 | 9.71342 | 771 ft | 21 kts | 105° |
| 2026-04-22 09:19 | 45.66446 | 9.71537 | 769 ft | 20 kts | 101° |
| 2026-04-22 09:19 | 45.66461 | 9.71729 | 767 ft | 19 kts | 74° |
| 2026-04-22 09:19 | 45.66464 | 9.71916 | 765 ft | 19 kts | 103° |
| 2026-04-22 09:19 | 45.66433 | 9.72093 | 764 ft | 18 kts | 104° |
| 2026-04-22 09:20 | 45.66401 | 9.72264 | 763 ft | 17 kts | 104° |
| 2026-04-22 09:20 | 45.66380 | 9.72417 | 762 ft | 13 kts | 80° |
| 2026-04-22 09:20 | 45.66440 | 9.72442 | 761 ft | 9 kts | 335° |
| 2026-04-22 09:20 | 45.66481 | 9.72324 | 763 ft | 33 kts | 287° |
| 2026-04-22 09:21 | 45.66612 | 9.71596 | 769 ft | 116 kts | 285° |
| 2026-04-22 09:21 | 45.66851 | 9.70155 | 937 ft | 168 kts | 282° |
| 2026-04-22 09:21 | 45.67071 | 9.68595 | 2074 ft | 161 kts | 273° |
| 2026-04-22 09:21 | 45.66740 | 9.67027 | 2699 ft | 177 kts | 225° |
| 2026-04-22 09:22 | 45.65809 | 9.65855 | 3488 ft | 185 kts | 209° |
| 2026-04-22 09:22 | 45.64485 | 9.65503 | 3787 ft | 211 kts | 165° |
| 2026-04-22 09:22 | 45.63248 | 9.66694 | 4195 ft | 227 kts | 122° |
| 2026-04-22 09:22 | 45.62830 | 9.68872 | 4931 ft | 237 kts | 92° |
| 2026-04-22 09:23 | 45.62905 | 9.71335 | 5478 ft | 256 kts | 85° |
| 2026-04-22 09:23 | 45.63083 | 9.73917 | 6239 ft | 266 kts | 84° |
| 2026-04-22 09:23 | 45.63266 | 9.76579 | 7074 ft | 271 kts | 83° |
| 2026-04-22 09:23 | 45.63435 | 9.79273 | 7990 ft | 274 kts | 83° |
| 2026-04-22 09:24 | 45.63588 | 9.82005 | 8847 ft | 278 kts | 83° |
| 2026-04-22 09:24 | 45.63730 | 9.84784 | 9711 ft | 282 kts | 83° |
| 2026-04-22 09:24 | 45.63865 | 9.87608 | 10460 ft | 290 kts | 83° |
| 2026-04-22 09:24 | 45.64006 | 9.90615 | 10682 ft | 316 kts | 84° |
| 2026-04-22 09:25 | 45.64152 | 9.93877 | 10905 ft | 340 kts | 84° |
| 2026-04-22 09:25 | 45.64300 | 9.97308 | 11458 ft | 350 kts | 84° |
| 2026-04-22 09:25 | 45.64447 | 10.00803 | 12222 ft | 354 kts | 84° |
| 2026-04-22 09:25 | 45.64595 | 10.04339 | 13013 ft | 358 kts | 84° |
| 2026-04-22 09:26 | 45.64760 | 10.07913 | 13751 ft | 363 kts | 81° |
| 2026-04-22 09:26 | 45.65318 | 10.11435 | 14396 ft | 364 kts | 68° |
| 2026-04-22 09:26 | 45.66364 | 10.14724 | 15094 ft | 364 kts | 56° |
| 2026-04-22 09:26 | 45.67795 | 10.17719 | 15728 ft | 368 kts | 51° |
| 2026-04-22 09:27 | 45.69316 | 10.20687 | 16396 ft | 371 kts | 50° |
| 2026-04-22 09:27 | 45.70856 | 10.23674 | 17110 ft | 375 kts | 51° |
| 2026-04-22 09:27 | 45.72401 | 10.26699 | 17782 ft | 379 kts | 51° |
| 2026-04-22 09:27 | 45.73956 | 10.29776 | 18430 ft | 384 kts | 51° |
| 2026-04-22 09:28 | 45.75520 | 10.32896 | 19000 ft | 388 kts | 51° |
| 2026-04-22 09:28 | 45.77090 | 10.36042 | 19544 ft | 392 kts | 50° |
| 2026-04-22 09:28 | 45.78685 | 10.39243 | 20045 ft | 396 kts | 50° |
| 2026-04-22 09:28 | 45.80290 | 10.42468 | 20538 ft | 400 kts | 50° |
| 2026-04-22 09:29 | 45.81912 | 10.45732 | 21085 ft | 403 kts | 50° |
| 2026-04-22 09:29 | 45.83542 | 10.49020 | 21612 ft | 407 kts | 50° |
| 2026-04-22 09:29 | 45.85190 | 10.52349 | 22110 ft | 411 kts | 50° |
| 2026-04-22 09:29 | 45.86850 | 10.55706 | 22614 ft | 414 kts | 49° |
| 2026-04-22 09:30 | 45.88521 | 10.59091 | 22935 ft | 418 kts | 50° |
| 2026-04-22 09:30 | 45.90205 | 10.62505 | 23472 ft | 420 kts | 50° |
| 2026-04-22 09:30 | 45.91895 | 10.65934 | 23984 ft | 422 kts | 50° |
| 2026-04-22 09:30 | 45.93020 | 10.68220 | 24250 ft | 424 kts | 50° |
| 2026-04-22 09:31 | 45.95302 | 10.72869 | 24789 ft | 427 kts | 50° |
| 2026-04-22 09:31 | 45.97017 | 10.76375 | 25180 ft | 430 kts | 50° |
| 2026-04-22 09:31 | 45.98158 | 10.78712 | 25487 ft | 431 kts | 50° |
| 2026-04-22 09:31 | 46.00468 | 10.83450 | 26046 ft | 434 kts | 50° |
| 2026-04-22 09:32 | 46.02184 | 10.86975 | 26420 ft | 437 kts | 50° |
| 2026-04-22 09:32 | 46.03934 | 10.90575 | 26795 ft | 440 kts | 50° |
| 2026-04-22 09:32 | 46.05121 | 10.93018 | 27050 ft | 442 kts | 50° |
| 2026-04-22 09:32 | 46.06889 | 10.96662 | 27390 ft | 445 kts | 50° |
| 2026-04-22 09:33 | 46.09240 | 11.01514 | 27842 ft | 448 kts | 50° |
| 2026-04-22 09:33 | 46.10448 | 11.04008 | 28064 ft | 450 kts | 50° |
| 2026-04-22 09:33 | 46.12222 | 11.07675 | 28364 ft | 453 kts | 50° |
| 2026-04-22 09:33 | 46.14028 | 11.11404 | 28697 ft | 455 kts | 49° |
| 2026-04-22 09:34 | 46.15850 | 11.15160 | 29013 ft | 458 kts | 49° |
| 2026-04-22 09:34 | 46.17684 | 11.18945 | 29323 ft | 461 kts | 49° |
| 2026-04-22 09:34 | 46.19546 | 11.22798 | 29652 ft | 463 kts | 49° |
| 2026-04-22 09:35 | 46.23192 | 11.30366 | 30402 ft | 461 kts | 49° |
| 2026-04-22 09:35 | 46.25023 | 11.34171 | 30774 ft | 461 kts | 49° |
| 2026-04-22 09:35 | 46.26764 | 11.38065 | 31168 ft | 464 kts | 54° |
| 2026-04-22 09:35 | 46.28293 | 11.42195 | 31459 ft | 466 kts | 56° |
| 2026-04-22 09:36 | 46.29782 | 11.46358 | 31785 ft | 466 kts | 57° |
| 2026-04-22 09:36 | 46.31273 | 11.50516 | 32171 ft | 464 kts | 56° |
| 2026-04-22 09:36 | 46.32770 | 11.54644 | 32558 ft | 463 kts | 56° |
| 2026-04-22 09:36 | 46.34278 | 11.58759 | 32827 ft | 463 kts | 56° |
| 2026-04-22 09:37 | 46.35796 | 11.62878 | 33060 ft | 464 kts | 56° |
| 2026-04-22 09:37 | 46.37313 | 11.66996 | 33423 ft | 463 kts | 56° |
| 2026-04-22 09:37 | 46.38820 | 11.71103 | 33817 ft | 461 kts | 56° |
| 2026-04-22 09:37 | 46.40322 | 11.75213 | 34145 ft | 461 kts | 56° |
| 2026-04-22 09:38 | 46.43325 | 11.83477 | 34155 ft | 464 kts | 56° |
| 2026-04-22 09:38 | 46.46314 | 11.91744 | 34180 ft | 464 kts | 57° |
| 2026-04-22 09:39 | 46.47818 | 11.95910 | 34333 ft | 467 kts | 57° |
| 2026-04-22 09:39 | 46.49325 | 12.00086 | 34543 ft | 467 kts | 57° |
| 2026-04-22 09:39 | 46.50828 | 12.04262 | 34828 ft | 466 kts | 57° |
| 2026-04-22 09:39 | 46.52327 | 12.08434 | 35109 ft | 465 kts | 57° |
| 2026-04-22 09:40 | 46.53822 | 12.12601 | 35352 ft | 465 kts | 57° |
| 2026-04-22 09:40 | 46.55316 | 12.16769 | 35585 ft | 465 kts | 57° |
| 2026-04-22 09:40 | 46.56808 | 12.20939 | 35779 ft | 466 kts | 57° |
| 2026-04-22 09:40 | 46.58299 | 12.25112 | 35974 ft | 465 kts | 57° |
| 2026-04-22 09:41 | 46.59787 | 12.29284 | 36255 ft | 464 kts | 58° |
| 2026-04-22 09:41 | 46.61267 | 12.33441 | 36495 ft | 463 kts | 58° |
| 2026-04-22 09:41 | 46.62748 | 12.37606 | 36654 ft | 464 kts | 58° |
| 2026-04-22 09:41 | 46.64228 | 12.41774 | 36881 ft | 463 kts | 58° |
| 2026-04-22 09:42 | 46.65703 | 12.45935 | 37132 ft | 462 kts | 58° |
| 2026-04-22 09:42 | 46.67174 | 12.50092 | 37363 ft | 461 kts | 58° |
| 2026-04-22 09:42 | 46.68644 | 12.54249 | 37527 ft | 462 kts | 58° |
| 2026-04-22 09:42 | 46.70115 | 12.58403 | 37760 ft | 461 kts | 57° |
| 2026-04-22 09:43 | 46.71793 | 12.62346 | 37949 ft | 455 kts | 49° |
| 2026-04-22 09:43 | 46.73673 | 12.66041 | 38102 ft | 452 kts | 48° |
| 2026-04-22 09:43 | 46.77510 | 12.73299 | 38182 ft | 454 kts | 47° |
| 2026-04-22 09:44 | 46.81384 | 12.80639 | 38195 ft | 458 kts | 48° |
| 2026-04-22 09:44 | 46.85244 | 12.88068 | 38211 ft | 460 kts | 49° |
| 2026-04-22 09:45 | 46.89093 | 12.95544 | 38201 ft | 459 kts | 49° |
| 2026-04-22 09:45 | 46.92921 | 13.03014 | 38211 ft | 459 kts | 49° |
| 2026-04-22 09:46 | 46.96735 | 13.10474 | 38212 ft | 457 kts | 49° |
| 2026-04-22 09:46 | 47.00530 | 13.17910 | 38208 ft | 455 kts | 49° |
| 2026-04-22 09:47 | 47.04309 | 13.25334 | 38210 ft | 453 kts | 49° |
| 2026-04-22 09:47 | 47.08058 | 13.32724 | 38256 ft | 450 kts | 49° |
| 2026-04-22 09:48 | 47.11769 | 13.40053 | 38247 ft | 451 kts | 49° |
| 2026-04-22 09:48 | 47.15503 | 13.47447 | 38247 ft | 450 kts | 49° |
| 2026-04-22 09:49 | 47.19234 | 13.54855 | 38253 ft | 451 kts | 50° |
| 2026-04-22 09:49 | 47.22964 | 13.62282 | 38250 ft | 452 kts | 50° |
| 2026-04-22 09:50 | 47.26700 | 13.69742 | 38260 ft | 454 kts | 50° |
| 2026-04-22 09:50 | 47.30443 | 13.77235 | 38255 ft | 454 kts | 50° |
| 2026-04-22 09:51 | 47.34182 | 13.84743 | 38257 ft | 454 kts | 50° |
| 2026-04-22 09:51 | 47.37917 | 13.92263 | 38257 ft | 455 kts | 50° |
| 2026-04-22 09:52 | 47.41652 | 13.99802 | 38269 ft | 455 kts | 50° |
| 2026-04-22 09:52 | 47.45377 | 14.07342 | 38291 ft | 454 kts | 51° |
| 2026-04-22 09:53 | 47.49091 | 14.14882 | 38292 ft | 454 kts | 51° |
| 2026-04-22 09:53 | 47.52803 | 14.22435 | 38271 ft | 453 kts | 51° |
| 2026-04-22 09:54 | 47.56500 | 14.29982 | 38268 ft | 453 kts | 51° |
| 2026-04-22 09:54 | 47.60186 | 14.37525 | 38259 ft | 451 kts | 51° |
| 2026-04-22 09:55 | 47.63857 | 14.45060 | 38256 ft | 451 kts | 51° |
| 2026-04-22 09:55 | 47.67518 | 14.52593 | 38266 ft | 450 kts | 51° |
| 2026-04-22 09:56 | 47.71171 | 14.60131 | 38254 ft | 449 kts | 51° |
| 2026-04-22 09:56 | 47.74817 | 14.67673 | 38262 ft | 449 kts | 51° |
| 2026-04-22 09:57 | 47.78450 | 14.75213 | 38253 ft | 449 kts | 52° |
| 2026-04-22 09:57 | 47.82083 | 14.82770 | 38246 ft | 449 kts | 52° |
| 2026-04-22 09:58 | 47.85675 | 14.90266 | 38244 ft | 447 kts | 52° |
| 2026-04-22 09:58 | 47.89285 | 14.97818 | 38254 ft | 448 kts | 52° |
| 2026-04-22 09:59 | 47.92918 | 15.05435 | 37630 ft | 455 kts | 52° |
| 2026-04-22 09:59 | 47.94745 | 15.09277 | 37051 ft | 454 kts | 52° |
| 2026-04-22 09:59 | 47.96567 | 15.13114 | 36492 ft | 452 kts | 52° |
| 2026-04-22 10:00 | 47.98384 | 15.16945 | 35864 ft | 452 kts | 52° |
| 2026-04-22 10:00 | 48.00202 | 15.20784 | 35230 ft | 453 kts | 52° |
| 2026-04-22 10:00 | 48.02022 | 15.24632 | 34570 ft | 454 kts | 52° |
| 2026-04-22 10:00 | 48.03839 | 15.28479 | 33970 ft | 452 kts | 53° |
| 2026-04-22 10:01 | 48.05636 | 15.32290 | 33427 ft | 447 kts | 53° |
| 2026-04-22 10:01 | 48.07418 | 15.36075 | 32924 ft | 442 kts | 53° |
| 2026-04-22 10:01 | 48.09174 | 15.39810 | 32445 ft | 437 kts | 53° |
| 2026-04-22 10:01 | 48.10909 | 15.43505 | 31963 ft | 427 kts | 53° |
| 2026-04-22 10:02 | 48.12588 | 15.47085 | 31523 ft | 414 kts | 54° |
| 2026-04-22 10:02 | 48.14216 | 15.50562 | 31072 ft | 402 kts | 54° |
| 2026-04-22 10:02 | 48.15799 | 15.53948 | 30658 ft | 391 kts | 54° |
| 2026-04-22 10:02 | 48.17338 | 15.57240 | 30209 ft | 381 kts | 54° |
| 2026-04-22 10:03 | 48.18834 | 15.60444 | 29755 ft | 370 kts | 54° |
| 2026-04-22 10:03 | 48.20283 | 15.63551 | 29340 ft | 359 kts | 54° |
| 2026-04-22 10:03 | 48.21697 | 15.66585 | 28916 ft | 349 kts | 54° |
| 2026-04-22 10:03 | 48.23072 | 15.69540 | 28521 ft | 344 kts | 54° |
| 2026-04-22 10:04 | 48.24448 | 15.72502 | 28134 ft | 350 kts | 54° |
| 2026-04-22 10:04 | 48.25870 | 15.75563 | 27718 ft | 365 kts | 55° |
| 2026-04-22 10:04 | 48.27346 | 15.78746 | 27274 ft | 377 kts | 55° |
| 2026-04-22 10:04 | 48.28827 | 15.81943 | 26796 ft | 367 kts | 55° |
| 2026-04-22 10:05 | 48.30261 | 15.85044 | 26382 ft | 356 kts | 55° |
| 2026-04-22 10:05 | 48.31651 | 15.88055 | 25959 ft | 346 kts | 55° |
| 2026-04-22 10:05 | 48.33008 | 15.90994 | 25541 ft | 338 kts | 55° |
| 2026-04-22 10:05 | 48.34332 | 15.93867 | 25162 ft | 331 kts | 55° |
| 2026-04-22 10:06 | 48.35632 | 15.96690 | 24769 ft | 328 kts | 55° |
| 2026-04-22 10:06 | 48.36951 | 15.99557 | 24423 ft | 342 kts | 55° |
| 2026-04-22 10:06 | 48.38340 | 16.02579 | 24010 ft | 358 kts | 55° |
| 2026-04-22 10:06 | 48.39751 | 16.05651 | 23501 ft | 354 kts | 55° |
| 2026-04-22 10:07 | 48.41138 | 16.08677 | 23038 ft | 348 kts | 55° |
| 2026-04-22 10:07 | 48.42497 | 16.11645 | 22629 ft | 341 kts | 55° |
| 2026-04-22 10:07 | 48.43825 | 16.14550 | 22225 ft | 334 kts | 55° |
| 2026-04-22 10:07 | 48.45132 | 16.17410 | 21817 ft | 329 kts | 55° |
| 2026-04-22 10:08 | 48.46418 | 16.20227 | 21422 ft | 323 kts | 54° |
| 2026-04-22 10:08 | 48.47685 | 16.23004 | 21037 ft | 321 kts | 54° |
| 2026-04-22 10:08 | 48.48941 | 16.25762 | 20653 ft | 318 kts | 54° |
| 2026-04-22 10:08 | 48.50205 | 16.28537 | 20281 ft | 325 kts | 54° |
| 2026-04-22 10:09 | 48.51507 | 16.31400 | 19903 ft | 336 kts | 54° |
| 2026-04-22 10:09 | 48.52825 | 16.34301 | 19486 ft | 333 kts | 54° |
| 2026-04-22 10:09 | 48.54125 | 16.37168 | 19070 ft | 328 kts | 54° |
| 2026-04-22 10:09 | 48.55404 | 16.39992 | 18686 ft | 323 kts | 54° |
| 2026-04-22 10:10 | 48.56664 | 16.42775 | 18268 ft | 319 kts | 54° |
| 2026-04-22 10:10 | 48.57887 | 16.45481 | 17856 ft | 314 kts | 54° |
| 2026-04-22 10:10 | 48.59124 | 16.48218 | 17471 ft | 309 kts | 54° |
| 2026-04-22 10:10 | 48.60310 | 16.50846 | 17117 ft | 305 kts | 54° |
| 2026-04-22 10:11 | 48.61503 | 16.53492 | 16729 ft | 304 kts | 54° |
| 2026-04-22 10:11 | 48.62691 | 16.56126 | 16363 ft | 304 kts | 54° |
| 2026-04-22 10:11 | 48.63901 | 16.58811 | 16005 ft | 314 kts | 54° |
| 2026-04-22 10:11 | 48.65141 | 16.61568 | 15623 ft | 319 kts | 54° |
| 2026-04-22 10:12 | 48.66384 | 16.64338 | 15215 ft | 315 kts | 54° |
| 2026-04-22 10:12 | 48.67599 | 16.67050 | 14838 ft | 307 kts | 54° |
| 2026-04-22 10:12 | 48.68781 | 16.69687 | 14456 ft | 298 kts | 54° |
| 2026-04-22 10:12 | 48.69931 | 16.72256 | 14104 ft | 291 kts | 54° |
| 2026-04-22 10:13 | 48.71048 | 16.74755 | 13730 ft | 283 kts | 54° |
| 2026-04-22 10:13 | 48.72212 | 16.77096 | 13374 ft | 274 kts | 41° |
| 2026-04-22 10:13 | 48.73778 | 16.78609 | 13043 ft | 265 kts | 22° |
| 2026-04-22 10:13 | 48.75566 | 16.79202 | 12642 ft | 261 kts | 6° |
| 2026-04-22 10:14 | 48.77356 | 16.79371 | 12319 ft | 255 kts | 5° |
| 2026-04-22 10:14 | 48.79102 | 16.79513 | 12023 ft | 248 kts | 5° |
| 2026-04-22 10:14 | 48.80814 | 16.79662 | 11709 ft | 244 kts | 5° |
| 2026-04-22 10:14 | 48.82490 | 16.79812 | 11438 ft | 239 kts | 5° |
| 2026-04-22 10:15 | 48.84143 | 16.79965 | 11156 ft | 237 kts | 5° |
| 2026-04-22 10:15 | 48.85791 | 16.80119 | 10874 ft | 237 kts | 5° |
| 2026-04-22 10:15 | 48.87430 | 16.80272 | 10698 ft | 233 kts | 5° |
| 2026-04-22 10:15 | 48.89017 | 16.80420 | 10624 ft | 227 kts | 5° |
| 2026-04-22 10:16 | 48.90616 | 16.80569 | 10548 ft | 234 kts | 5° |
| 2026-04-22 10:16 | 48.92262 | 16.80723 | 10440 ft | 239 kts | 5° |
| 2026-04-22 10:16 | 48.93921 | 16.80880 | 10332 ft | 237 kts | 5° |
| 2026-04-22 10:16 | 48.95008 | 16.80980 | 10265 ft | 236 kts | 5° |
| 2026-04-22 10:17 | 48.97227 | 16.81176 | 9936 ft | 241 kts | 5° |
| 2026-04-22 10:17 | 48.98341 | 16.81279 | 9774 ft | 243 kts | 5° |
| 2026-04-22 10:17 | 49.00022 | 16.81443 | 9485 ft | 241 kts | 5° |
| 2026-04-22 10:17 | 49.01678 | 16.81598 | 9191 ft | 235 kts | 5° |
| 2026-04-22 10:18 | 49.03241 | 16.82054 | 8929 ft | 228 kts | 28° |
| 2026-04-22 10:18 | 49.04427 | 16.83559 | 8762 ft | 225 kts | 53° |
| 2026-04-22 10:18 | 49.05093 | 16.85746 | 8524 ft | 233 kts | 77° |
| 2026-04-22 10:18 | 49.05124 | 16.88258 | 8168 ft | 245 kts | 93° |
| 2026-04-22 10:19 | 49.04894 | 16.90879 | 7784 ft | 251 kts | 95° |
| 2026-04-22 10:19 | 49.04642 | 16.93506 | 7500 ft | 251 kts | 95° |
| 2026-04-22 10:19 | 49.04400 | 16.96104 | 7242 ft | 243 kts | 95° |
| 2026-04-22 10:19 | 49.04172 | 16.98623 | 6946 ft | 236 kts | 95° |
| 2026-04-22 10:20 | 49.03944 | 17.01064 | 6720 ft | 228 kts | 94° |
| 2026-04-22 10:20 | 49.03729 | 17.03411 | 6514 ft | 221 kts | 94° |
| 2026-04-22 10:20 | 49.03524 | 17.05701 | 6293 ft | 215 kts | 94° |
| 2026-04-22 10:20 | 49.03323 | 17.07931 | 6033 ft | 210 kts | 94° |
| 2026-04-22 10:21 | 49.03426 | 17.10073 | 5807 ft | 202 kts | 62° |
| 2026-04-22 10:21 | 49.04289 | 17.11664 | 5643 ft | 195 kts | 32° |
| 2026-04-22 10:21 | 49.05535 | 17.12377 | 5523 ft | 193 kts | 11° |
| 2026-04-22 10:21 | 49.06862 | 17.12685 | 5390 ft | 189 kts | 8° |
| 2026-04-22 10:22 | 49.08161 | 17.12956 | 5268 ft | 186 kts | 8° |
| 2026-04-22 10:22 | 49.09437 | 17.13161 | 5193 ft | 185 kts | 358° |
| 2026-04-22 10:22 | 49.10576 | 17.12330 | 5072 ft | 190 kts | 310° |
| 2026-04-22 10:22 | 49.11113 | 17.10421 | 5068 ft | 204 kts | 291° |
| 2026-04-22 10:23 | 49.11567 | 17.08316 | 4900 ft | 210 kts | 291° |
| 2026-04-22 10:23 | 49.11949 | 17.06179 | 4703 ft | 209 kts | 286° |
| 2026-04-22 10:23 | 49.12196 | 17.04019 | 4519 ft | 204 kts | 283° |
| 2026-04-22 10:23 | 49.12380 | 17.01877 | 4353 ft | 205 kts | 279° |
| 2026-04-22 10:24 | 49.12561 | 16.99672 | 4042 ft | 211 kts | 281° |
| 2026-04-22 10:24 | 49.12748 | 16.97510 | 3875 ft | 205 kts | 281° |
| 2026-04-22 10:24 | 49.12928 | 16.95338 | 3722 ft | 209 kts | 283° |
| 2026-04-22 10:24 | 49.13109 | 16.93153 | 3477 ft | 211 kts | 281° |
| 2026-04-22 10:25 | 49.13294 | 16.90948 | 3231 ft | 207 kts | 279° |
| 2026-04-22 10:25 | 49.13476 | 16.88752 | 3031 ft | 209 kts | 281° |
| 2026-04-22 10:25 | 49.13669 | 16.86617 | 2849 ft | 201 kts | 281° |
| 2026-04-22 10:25 | 49.13795 | 16.84513 | 2617 ft | 191 kts | 283° |
| 2026-04-22 10:26 | 49.14029 | 16.82559 | 2308 ft | 184 kts | 284° |
| 2026-04-22 10:26 | 49.14165 | 16.80676 | 2085 ft | 181 kts | 278° |
| 2026-04-22 10:26 | 49.14309 | 16.78820 | 1878 ft | 171 kts | 283° |
| 2026-04-22 10:26 | 49.14478 | 16.77097 | 1581 ft | 157 kts | 283° |
| 2026-04-22 10:27 | 49.14607 | 16.75482 | 1381 ft | 148 kts | 281° |
| 2026-04-22 10:27 | 49.14735 | 16.73982 | 1152 ft | 136 kts | 284° |
| 2026-04-22 10:27 | 49.14854 | 16.72604 | 975 ft | 126 kts | 283° |
| 2026-04-22 10:27 | 49.14969 | 16.71321 | 825 ft | 120 kts | 281° |
| 2026-04-22 10:28 | 49.15071 | 16.70171 | 775 ft | 91 kts | 279° |
| 2026-04-22 10:28 | 49.15123 | 16.69534 | 780 ft | 37 kts | 277° |
| 2026-04-22 10:28 | 49.15141 | 16.69306 | 779 ft | 9 kts | 277° |
| 2026-04-22 10:28 | 49.15173 | 16.69233 | 778 ft | 8 kts | 329° |
| 2026-04-22 10:29 | 49.15205 | 16.69228 | 778 ft | 5 kts | 0° |
| 2026-04-22 10:29 | 49.15236 | 16.69231 | 777 ft | 4 kts | 4° |
| 2026-04-22 10:29 | 49.15267 | 16.69235 | 777 ft | 4 kts | 5° |
| 2026-04-22 10:29 | 49.15297 | 16.69239 | 778 ft | 4 kts | 5° |
| 2026-04-22 10:30 | 49.15326 | 16.69243 | 778 ft | 4 kts | 7° |
| 2026-04-22 10:30 | 49.15355 | 16.69248 | 779 ft | 4 kts | 6° |
| 2026-04-22 10:30 | 49.15363 | 16.69250 | 780 ft | 0 kts | 6° |